sensor_id;sensor_type;location;lat;lon;timestamp;temperature;humidity
27741;DHT22;15134;48.768;9.184;2024-01-25T00:02:19;10.80;99.90
27741;DHT22;15134;48.768;9.184;2024-01-25T00:04:45;10.80;99.90
27741;DHT22;15134;48.768;9.184;2024-01-25T00:07:11;10.80;99.90
27741;DHT22;15134;48.768;9.184;2024-01-25T00:09:37;10.70;99.90
27741;DHT22;15134;48.768;9.184;2024-01-25T00:12:03;10.70;99.90
27741;DHT22;15134;48.768;9.184;2024-01-25T00:14:28;10.70;99.90
27741;DHT22;15134;48.768;9.184;2024-01-25T00:16:54;10.70;99.90
27741;DHT22;15134;48.768;9.184;2024-01-25T00:19:20;10.70;99.90
27741;DHT22;15134;48.768;9.184;2024-01-25T00:21:46;10.60;99.90
27741;DHT22;15134;48.768;9.184;2024-01-25T00:24:12;10.60;99.90
27741;DHT22;15134;48.768;9.184;2024-01-25T00:26:38;10.60;99.90
27741;DHT22;15134;48.768;9.184;2024-01-25T00:29:04;10.60;99.90
27741;DHT22;15134;48.768;9.184;2024-01-25T00:31:30;10.60;99.90
27741;DHT22;15134;48.768;9.184;2024-01-25T00:33:57;10.60;99.90
27741;DHT22;15134;48.768;9.184;2024-01-25T00:36:24;10.60;99.90
27741;DHT22;15134;48.768;9.184;2024-01-25T00:38:50;10.70;99.90
27741;DHT22;15134;48.768;9.184;2024-01-25T00:41:19;10.70;99.90
27741;DHT22;15134;48.768;9.184;2024-01-25T00:43:45;10.70;99.90
27741;DHT22;15134;48.768;9.184;2024-01-25T00:46:12;10.70;99.90
27741;DHT22;15134;48.768;9.184;2024-01-25T00:48:38;10.70;99.90
27741;DHT22;15134;48.768;9.184;2024-01-25T00:51:07;10.70;99.90
27741;DHT22;15134;48.768;9.184;2024-01-25T00:53:33;10.70;99.90
27741;DHT22;15134;48.768;9.184;2024-01-25T00:55:59;10.70;99.90
27741;DHT22;15134;48.768;9.184;2024-01-25T00:58:25;10.70;99.90
27741;DHT22;15134;48.768;9.184;2024-01-25T01:00:51;10.70;99.90
27741;DHT22;15134;48.768;9.184;2024-01-25T01:03:18;10.70;99.90
27741;DHT22;15134;48.768;9.184;2024-01-25T01:05:47;10.70;99.90
27741;DHT22;15134;48.768;9.184;2024-01-25T01:08:13;10.70;99.90
27741;DHT22;15134;48.768;9.184;2024-01-25T01:10:39;10.70;99.90
27741;DHT22;15134;48.768;9.184;2024-01-25T01:13:05;10.70;99.90
27741;DHT22;15134;48.768;9.184;2024-01-25T01:15:30;10.70;99.90
27741;DHT22;15134;48.768;9.184;2024-01-25T01:17:56;10.70;99.90
27741;DHT22;15134;48.768;9.184;2024-01-25T01:20:22;10.70;99.90
27741;DHT22;15134;48.768;9.184;2024-01-25T01:22:48;10.70;99.90
27741;DHT22;15134;48.768;9.184;2024-01-25T01:25:14;10.70;99.90
27741;DHT22;15134;48.768;9.184;2024-01-25T01:27:40;10.70;99.90
27741;DHT22;15134;48.768;9.184;2024-01-25T01:30:06;10.70;99.90
27741;DHT22;15134;48.768;9.184;2024-01-25T01:32:33;10.70;99.90
27741;DHT22;15134;48.768;9.184;2024-01-25T01:34:59;10.70;99.90
27741;DHT22;15134;48.768;9.184;2024-01-25T01:37:25;10.70;99.90
27741;DHT22;15134;48.768;9.184;2024-01-25T01:39:51;10.70;99.90
27741;DHT22;15134;48.768;9.184;2024-01-25T01:42:18;10.70;99.90
27741;DHT22;15134;48.768;9.184;2024-01-25T01:44:43;10.70;99.90
27741;DHT22;15134;48.768;9.184;2024-01-25T01:47:09;10.70;99.90
27741;DHT22;15134;48.768;9.184;2024-01-25T01:49:35;10.70;99.90
27741;DHT22;15134;48.768;9.184;2024-01-25T01:52:01;10.70;99.90
27741;DHT22;15134;48.768;9.184;2024-01-25T01:54:27;10.70;99.90
27741;DHT22;15134;48.768;9.184;2024-01-25T01:56:53;10.70;99.90
27741;DHT22;15134;48.768;9.184;2024-01-25T01:59:20;10.70;99.90
27741;DHT22;15134;48.768;9.184;2024-01-25T02:01:46;10.70;99.90
27741;DHT22;15134;48.768;9.184;2024-01-25T02:04:12;10.60;99.90
27741;DHT22;15134;48.768;9.184;2024-01-25T02:06:39;10.60;99.90
27741;DHT22;15134;48.768;9.184;2024-01-25T02:09:05;10.70;99.90
27741;DHT22;15134;48.768;9.184;2024-01-25T02:11:30;10.70;99.90
27741;DHT22;15134;48.768;9.184;2024-01-25T02:13:56;10.70;99.90
27741;DHT22;15134;48.768;9.184;2024-01-25T02:16:22;10.70;99.90
27741;DHT22;15134;48.768;9.184;2024-01-25T02:18:47;10.70;99.90
27741;DHT22;15134;48.768;9.184;2024-01-25T02:21:13;10.70;99.90
27741;DHT22;15134;48.768;9.184;2024-01-25T02:23:39;10.60;99.90
27741;DHT22;15134;48.768;9.184;2024-01-25T02:26:05;10.60;99.90
27741;DHT22;15134;48.768;9.184;2024-01-25T02:28:30;10.60;99.90
27741;DHT22;15134;48.768;9.184;2024-01-25T02:30:56;10.60;99.90
27741;DHT22;15134;48.768;9.184;2024-01-25T02:33:22;10.60;99.90
27741;DHT22;15134;48.768;9.184;2024-01-25T02:35:48;10.60;99.90
27741;DHT22;15134;48.768;9.184;2024-01-25T02:38:13;10.50;99.90
27741;DHT22;15134;48.768;9.184;2024-01-25T02:40:39;10.50;99.90
27741;DHT22;15134;48.768;9.184;2024-01-25T02:43:05;10.60;99.90
27741;DHT22;15134;48.768;9.184;2024-01-25T02:45:31;10.50;99.90
27741;DHT22;15134;48.768;9.184;2024-01-25T02:47:57;10.50;99.90
27741;DHT22;15134;48.768;9.184;2024-01-25T02:50:22;10.50;99.90
27741;DHT22;15134;48.768;9.184;2024-01-25T02:52:48;10.60;99.90
27741;DHT22;15134;48.768;9.184;2024-01-25T02:55:14;10.60;99.90
27741;DHT22;15134;48.768;9.184;2024-01-25T02:57:44;10.60;99.90
27741;DHT22;15134;48.768;9.184;2024-01-25T03:00:10;10.60;99.90
27741;DHT22;15134;48.768;9.184;2024-01-25T03:02:36;10.50;99.90
27741;DHT22;15134;48.768;9.184;2024-01-25T03:05:01;10.50;99.90
27741;DHT22;15134;48.768;9.184;2024-01-25T03:07:28;10.50;99.90
27741;DHT22;15134;48.768;9.184;2024-01-25T03:09:53;10.50;99.90
27741;DHT22;15134;48.768;9.184;2024-01-25T03:12:19;10.60;99.90
27741;DHT22;15134;48.768;9.184;2024-01-25T03:14:45;10.50;99.90
27741;DHT22;15134;48.768;9.184;2024-01-25T03:17:11;10.50;99.90
27741;DHT22;15134;48.768;9.184;2024-01-25T03:19:38;10.40;99.90
27741;DHT22;15134;48.768;9.184;2024-01-25T03:22:03;10.30;99.90
27741;DHT22;15134;48.768;9.184;2024-01-25T03:24:29;10.30;99.90
27741;DHT22;15134;48.768;9.184;2024-01-25T03:26:56;10.30;99.90
27741;DHT22;15134;48.768;9.184;2024-01-25T03:29:22;10.20;99.90
27741;DHT22;15134;48.768;9.184;2024-01-25T03:31:48;10.30;99.90
27741;DHT22;15134;48.768;9.184;2024-01-25T03:34:14;10.30;99.90
27741;DHT22;15134;48.768;9.184;2024-01-25T03:36:40;10.30;99.90
27741;DHT22;15134;48.768;9.184;2024-01-25T03:39:06;10.30;99.90
27741;DHT22;15134;48.768;9.184;2024-01-25T03:41:32;10.30;99.90
27741;DHT22;15134;48.768;9.184;2024-01-25T03:43:58;10.30;99.90
27741;DHT22;15134;48.768;9.184;2024-01-25T03:46:25;10.30;99.90
27741;DHT22;15134;48.768;9.184;2024-01-25T03:48:50;10.30;99.90
27741;DHT22;15134;48.768;9.184;2024-01-25T03:51:16;10.40;99.90
27741;DHT22;15134;48.768;9.184;2024-01-25T03:53:42;10.30;99.90
27741;DHT22;15134;48.768;9.184;2024-01-25T03:56:14;10.40;99.90
27741;DHT22;15134;48.768;9.184;2024-01-25T03:58:43;10.30;99.90
27741;DHT22;15134;48.768;9.184;2024-01-25T04:01:08;10.30;99.90
27741;DHT22;15134;48.768;9.184;2024-01-25T04:03:35;10.30;99.90
27741;DHT22;15134;48.768;9.184;2024-01-25T04:06:00;10.30;99.90
27741;DHT22;15134;48.768;9.184;2024-01-25T04:08:27;10.40;99.90
27741;DHT22;15134;48.768;9.184;2024-01-25T04:10:52;10.40;99.90
27741;DHT22;15134;48.768;9.184;2024-01-25T04:13:18;10.30;99.90
27741;DHT22;15134;48.768;9.184;2024-01-25T04:15:44;10.30;99.90
27741;DHT22;15134;48.768;9.184;2024-01-25T04:18:09;10.30;99.90
27741;DHT22;15134;48.768;9.184;2024-01-25T04:20:35;10.30;99.90
27741;DHT22;15134;48.768;9.184;2024-01-25T04:23:01;10.30;99.90
27741;DHT22;15134;48.768;9.184;2024-01-25T04:25:27;10.30;99.90
27741;DHT22;15134;48.768;9.184;2024-01-25T04:27:52;10.30;99.90
27741;DHT22;15134;48.768;9.184;2024-01-25T04:30:18;10.30;99.90
27741;DHT22;15134;48.768;9.184;2024-01-25T04:32:44;10.20;99.90
27741;DHT22;15134;48.768;9.184;2024-01-25T04:35:10;10.10;99.90
27741;DHT22;15134;48.768;9.184;2024-01-25T04:37:36;10.10;99.90
27741;DHT22;15134;48.768;9.184;2024-01-25T04:40:02;10.10;99.90
27741;DHT22;15134;48.768;9.184;2024-01-25T04:42:28;10.10;99.90
27741;DHT22;15134;48.768;9.184;2024-01-25T04:44:54;10.10;99.90
27741;DHT22;15134;48.768;9.184;2024-01-25T04:47:20;10.10;99.90
27741;DHT22;15134;48.768;9.184;2024-01-25T04:49:46;10.20;99.90
27741;DHT22;15134;48.768;9.184;2024-01-25T04:52:12;10.10;99.90
27741;DHT22;15134;48.768;9.184;2024-01-25T04:54:37;10.10;99.90
27741;DHT22;15134;48.768;9.184;2024-01-25T04:57:03;10.00;99.90
27741;DHT22;15134;48.768;9.184;2024-01-25T04:59:35;10.00;99.90
27741;DHT22;15134;48.768;9.184;2024-01-25T05:02:01;10.00;99.90
27741;DHT22;15134;48.768;9.184;2024-01-25T05:04:28;10.00;99.90
27741;DHT22;15134;48.768;9.184;2024-01-25T05:06:54;10.10;99.90
27741;DHT22;15134;48.768;9.184;2024-01-25T05:09:21;10.10;99.90
27741;DHT22;15134;48.768;9.184;2024-01-25T05:11:46;10.10;99.90
27741;DHT22;15134;48.768;9.184;2024-01-25T05:14:12;10.00;99.90
27741;DHT22;15134;48.768;9.184;2024-01-25T05:16:38;10.00;99.90
27741;DHT22;15134;48.768;9.184;2024-01-25T05:19:04;9.90;99.90
27741;DHT22;15134;48.768;9.184;2024-01-25T05:21:29;9.80;99.90
27741;DHT22;15134;48.768;9.184;2024-01-25T05:23:55;9.80;99.90
27741;DHT22;15134;48.768;9.184;2024-01-25T05:26:21;9.70;99.90
27741;DHT22;15134;48.768;9.184;2024-01-25T05:28:47;9.70;99.90
27741;DHT22;15134;48.768;9.184;2024-01-25T05:31:13;9.60;99.90
27741;DHT22;15134;48.768;9.184;2024-01-25T05:33:42;9.50;99.90
27741;DHT22;15134;48.768;9.184;2024-01-25T05:36:08;9.50;99.90
27741;DHT22;15134;48.768;9.184;2024-01-25T05:38:35;9.50;99.90
27741;DHT22;15134;48.768;9.184;2024-01-25T05:41:01;9.60;99.90
27741;DHT22;15134;48.768;9.184;2024-01-25T05:43:27;9.60;99.90
27741;DHT22;15134;48.768;9.184;2024-01-25T05:45:53;9.60;99.90
27741;DHT22;15134;48.768;9.184;2024-01-25T05:48:19;9.60;99.90
27741;DHT22;15134;48.768;9.184;2024-01-25T05:50:44;9.60;99.90
27741;DHT22;15134;48.768;9.184;2024-01-25T05:53:10;9.60;99.90
27741;DHT22;15134;48.768;9.184;2024-01-25T05:55:36;9.60;99.90
27741;DHT22;15134;48.768;9.184;2024-01-25T05:58:02;9.60;99.90
27741;DHT22;15134;48.768;9.184;2024-01-25T06:00:28;9.60;99.90
27741;DHT22;15134;48.768;9.184;2024-01-25T06:02:53;9.60;99.90
27741;DHT22;15134;48.768;9.184;2024-01-25T06:05:20;9.60;99.90
27741;DHT22;15134;48.768;9.184;2024-01-25T06:07:46;9.60;99.90
27741;DHT22;15134;48.768;9.184;2024-01-25T06:10:12;9.50;99.90
27741;DHT22;15134;48.768;9.184;2024-01-25T06:12:38;9.50;99.90
27741;DHT22;15134;48.768;9.184;2024-01-25T06:15:04;9.50;99.90
27741;DHT22;15134;48.768;9.184;2024-01-25T06:17:31;9.50;99.90
27741;DHT22;15134;48.768;9.184;2024-01-25T06:19:57;9.50;99.90
27741;DHT22;15134;48.768;9.184;2024-01-25T06:22:24;9.40;99.90
27741;DHT22;15134;48.768;9.184;2024-01-25T06:24:51;9.40;99.90
27741;DHT22;15134;48.768;9.184;2024-01-25T06:27:17;9.40;99.90
27741;DHT22;15134;48.768;9.184;2024-01-25T06:29:42;9.40;99.90
27741;DHT22;15134;48.768;9.184;2024-01-25T06:32:09;9.40;99.90
27741;DHT22;15134;48.768;9.184;2024-01-25T06:34:35;9.40;99.90
27741;DHT22;15134;48.768;9.184;2024-01-25T06:37:01;9.40;99.90
27741;DHT22;15134;48.768;9.184;2024-01-25T06:39:27;9.40;99.90
27741;DHT22;15134;48.768;9.184;2024-01-25T06:41:53;9.30;99.90
27741;DHT22;15134;48.768;9.184;2024-01-25T06:44:19;9.30;99.90
27741;DHT22;15134;48.768;9.184;2024-01-25T06:46:46;9.30;99.90
27741;DHT22;15134;48.768;9.184;2024-01-25T06:49:11;9.30;99.90
27741;DHT22;15134;48.768;9.184;2024-01-25T06:51:37;9.30;99.90
27741;DHT22;15134;48.768;9.184;2024-01-25T06:54:03;9.20;99.90
27741;DHT22;15134;48.768;9.184;2024-01-25T06:56:29;9.10;99.90
27741;DHT22;15134;48.768;9.184;2024-01-25T06:58:54;9.10;99.90
27741;DHT22;15134;48.768;9.184;2024-01-25T07:01:23;9.10;99.90
27741;DHT22;15134;48.768;9.184;2024-01-25T07:03:49;9.10;99.90
27741;DHT22;15134;48.768;9.184;2024-01-25T07:06:17;9.10;99.90
27741;DHT22;15134;48.768;9.184;2024-01-25T07:08:44;9.00;99.90
27741;DHT22;15134;48.768;9.184;2024-01-25T07:11:10;9.00;99.90
27741;DHT22;15134;48.768;9.184;2024-01-25T07:13:35;9.10;99.90
27741;DHT22;15134;48.768;9.184;2024-01-25T07:16:01;9.10;99.90
27741;DHT22;15134;48.768;9.184;2024-01-25T07:18:27;9.10;99.90
27741;DHT22;15134;48.768;9.184;2024-01-25T07:20:53;9.10;99.90
27741;DHT22;15134;48.768;9.184;2024-01-25T07:23:20;9.00;99.90
27741;DHT22;15134;48.768;9.184;2024-01-25T07:25:46;9.00;99.90
27741;DHT22;15134;48.768;9.184;2024-01-25T07:28:11;9.10;99.90
27741;DHT22;15134;48.768;9.184;2024-01-25T07:30:38;9.10;99.90
27741;DHT22;15134;48.768;9.184;2024-01-25T07:33:04;9.10;99.90
27741;DHT22;15134;48.768;9.184;2024-01-25T07:35:29;9.10;99.90
27741;DHT22;15134;48.768;9.184;2024-01-25T07:37:55;9.00;99.90
27741;DHT22;15134;48.768;9.184;2024-01-25T07:40:21;9.10;99.90
27741;DHT22;15134;48.768;9.184;2024-01-25T07:42:47;9.10;99.90
27741;DHT22;15134;48.768;9.184;2024-01-25T07:45:12;9.20;99.90
27741;DHT22;15134;48.768;9.184;2024-01-25T07:47:41;9.10;99.90
27741;DHT22;15134;48.768;9.184;2024-01-25T07:50:07;9.10;99.90
27741;DHT22;15134;48.768;9.184;2024-01-25T07:52:33;9.20;99.90
27741;DHT22;15134;48.768;9.184;2024-01-25T07:54:59;9.20;99.90
27741;DHT22;15134;48.768;9.184;2024-01-25T07:57:25;9.20;99.90
27741;DHT22;15134;48.768;9.184;2024-01-25T07:59:51;9.30;99.90
27741;DHT22;15134;48.768;9.184;2024-01-25T08:02:17;9.30;99.90
27741;DHT22;15134;48.768;9.184;2024-01-25T08:04:42;9.30;99.90
27741;DHT22;15134;48.768;9.184;2024-01-25T08:07:08;9.20;99.90
27741;DHT22;15134;48.768;9.184;2024-01-25T08:09:34;9.30;99.90
27741;DHT22;15134;48.768;9.184;2024-01-25T08:12:00;9.30;99.90
27741;DHT22;15134;48.768;9.184;2024-01-25T08:14:26;9.30;99.90
27741;DHT22;15134;48.768;9.184;2024-01-25T08:16:51;9.20;99.90
27741;DHT22;15134;48.768;9.184;2024-01-25T08:19:17;9.30;99.90
27741;DHT22;15134;48.768;9.184;2024-01-25T08:21:43;9.20;99.90
27741;DHT22;15134;48.768;9.184;2024-01-25T08:24:09;9.20;99.90
27741;DHT22;15134;48.768;9.184;2024-01-25T08:26:34;9.30;99.90
27741;DHT22;15134;48.768;9.184;2024-01-25T08:29:00;9.30;99.90
27741;DHT22;15134;48.768;9.184;2024-01-25T08:31:28;9.20;99.90
27741;DHT22;15134;48.768;9.184;2024-01-25T08:33:54;9.10;99.90
27741;DHT22;15134;48.768;9.184;2024-01-25T08:36:19;9.10;99.90
27741;DHT22;15134;48.768;9.184;2024-01-25T08:38:45;9.20;99.90
27741;DHT22;15134;48.768;9.184;2024-01-25T08:41:11;9.30;99.90
27741;DHT22;15134;48.768;9.184;2024-01-25T08:43:37;9.30;99.90
27741;DHT22;15134;48.768;9.184;2024-01-25T08:46:03;9.40;99.90
27741;DHT22;15134;48.768;9.184;2024-01-25T08:48:30;9.40;99.90
27741;DHT22;15134;48.768;9.184;2024-01-25T08:50:56;9.50;99.90
27741;DHT22;15134;48.768;9.184;2024-01-25T08:53:21;9.50;99.90
27741;DHT22;15134;48.768;9.184;2024-01-25T08:55:55;9.50;99.90
27741;DHT22;15134;48.768;9.184;2024-01-25T08:58:21;9.60;99.90
27741;DHT22;15134;48.768;9.184;2024-01-25T09:00:47;9.50;99.90
27741;DHT22;15134;48.768;9.184;2024-01-25T09:03:14;9.50;99.90
27741;DHT22;15134;48.768;9.184;2024-01-25T09:05:40;9.60;99.90
27741;DHT22;15134;48.768;9.184;2024-01-25T09:08:12;9.60;99.90
27741;DHT22;15134;48.768;9.184;2024-01-25T09:10:38;9.60;99.90
27741;DHT22;15134;48.768;9.184;2024-01-25T09:13:04;9.50;99.90
27741;DHT22;15134;48.768;9.184;2024-01-25T09:15:30;9.60;99.90
27741;DHT22;15134;48.768;9.184;2024-01-25T09:17:56;9.60;99.90
27741;DHT22;15134;48.768;9.184;2024-01-25T09:20:21;9.70;99.90
27741;DHT22;15134;48.768;9.184;2024-01-25T09:22:47;9.70;99.90
27741;DHT22;15134;48.768;9.184;2024-01-25T09:25:13;9.70;99.90
27741;DHT22;15134;48.768;9.184;2024-01-25T09:27:39;9.80;99.90
27741;DHT22;15134;48.768;9.184;2024-01-25T09:30:05;9.80;99.90
27741;DHT22;15134;48.768;9.184;2024-01-25T09:32:31;9.90;99.90
27741;DHT22;15134;48.768;9.184;2024-01-25T09:34:57;10.00;99.90
27741;DHT22;15134;48.768;9.184;2024-01-25T09:37:23;10.10;99.90
27741;DHT22;15134;48.768;9.184;2024-01-25T09:39:51;10.10;99.90
27741;DHT22;15134;48.768;9.184;2024-01-25T09:42:18;10.20;99.90
27741;DHT22;15134;48.768;9.184;2024-01-25T09:44:44;10.20;99.90
27741;DHT22;15134;48.768;9.184;2024-01-25T09:47:10;10.30;99.90
27741;DHT22;15134;48.768;9.184;2024-01-25T09:49:37;10.40;99.90
27741;DHT22;15134;48.768;9.184;2024-01-25T09:52:03;10.50;99.90
27741;DHT22;15134;48.768;9.184;2024-01-25T09:54:34;10.50;99.90
27741;DHT22;15134;48.768;9.184;2024-01-25T09:57:05;10.70;99.90
27741;DHT22;15134;48.768;9.184;2024-01-25T09:59:32;10.60;99.90
27741;DHT22;15134;48.768;9.184;2024-01-25T10:01:59;10.70;99.90
27741;DHT22;15134;48.768;9.184;2024-01-25T10:04:26;10.70;99.90
27741;DHT22;15134;48.768;9.184;2024-01-25T10:06:55;10.70;99.90
27741;DHT22;15134;48.768;9.184;2024-01-25T10:09:22;10.60;99.90
27741;DHT22;15134;48.768;9.184;2024-01-25T10:11:48;10.60;99.90
27741;DHT22;15134;48.768;9.184;2024-01-25T10:14:14;10.60;99.90
27741;DHT22;15134;48.768;9.184;2024-01-25T10:16:39;10.60;99.90
27741;DHT22;15134;48.768;9.184;2024-01-25T10:19:06;10.60;99.90
27741;DHT22;15134;48.768;9.184;2024-01-25T10:21:34;10.60;99.90
27741;DHT22;15134;48.768;9.184;2024-01-25T10:24:01;10.60;99.90
27741;DHT22;15134;48.768;9.184;2024-01-25T10:26:27;10.70;99.90
27741;DHT22;15134;48.768;9.184;2024-01-25T10:28:54;10.80;99.90
27741;DHT22;15134;48.768;9.184;2024-01-25T10:31:23;10.80;99.90
27741;DHT22;15134;48.768;9.184;2024-01-25T10:33:52;10.70;99.90
27741;DHT22;15134;48.768;9.184;2024-01-25T10:36:22;10.70;99.90
27741;DHT22;15134;48.768;9.184;2024-01-25T10:38:49;10.60;99.90
27741;DHT22;15134;48.768;9.184;2024-01-25T10:41:19;10.70;99.90
27741;DHT22;15134;48.768;9.184;2024-01-25T10:43:45;10.70;99.90
27741;DHT22;15134;48.768;9.184;2024-01-25T10:46:11;10.70;99.90
27741;DHT22;15134;48.768;9.184;2024-01-25T10:48:37;10.80;99.90
27741;DHT22;15134;48.768;9.184;2024-01-25T10:51:04;10.90;99.90
27741;DHT22;15134;48.768;9.184;2024-01-25T10:53:34;10.90;99.90
27741;DHT22;15134;48.768;9.184;2024-01-25T10:56:02;11.10;99.90
27741;DHT22;15134;48.768;9.184;2024-01-25T10:58:34;11.20;99.90
27741;DHT22;15134;48.768;9.184;2024-01-25T11:01:01;11.40;99.90
27741;DHT22;15134;48.768;9.184;2024-01-25T11:03:29;11.60;99.90
27741;DHT22;15134;48.768;9.184;2024-01-25T11:08:32;12.10;99.90
27741;DHT22;15134;48.768;9.184;2024-01-25T11:10:58;12.20;99.90
27741;DHT22;15134;48.768;9.184;2024-01-25T11:13:26;12.50;99.90
27741;DHT22;15134;48.768;9.184;2024-01-25T11:15:52;12.70;99.90
27741;DHT22;15134;48.768;9.184;2024-01-25T11:18:18;12.70;99.90
27741;DHT22;15134;48.768;9.184;2024-01-25T11:20:47;12.50;99.90
27741;DHT22;15134;48.768;9.184;2024-01-25T11:23:16;12.40;99.90
27741;DHT22;15134;48.768;9.184;2024-01-25T11:25:45;12.30;99.90
27741;DHT22;15134;48.768;9.184;2024-01-25T11:28:14;12.40;99.90
27741;DHT22;15134;48.768;9.184;2024-01-25T11:30:40;12.40;99.90
27741;DHT22;15134;48.768;9.184;2024-01-25T11:33:09;12.30;99.90
27741;DHT22;15134;48.768;9.184;2024-01-25T11:35:36;12.40;99.90
27741;DHT22;15134;48.768;9.184;2024-01-25T11:38:01;12.40;99.90
27741;DHT22;15134;48.768;9.184;2024-01-25T11:40:27;12.40;99.90
27741;DHT22;15134;48.768;9.184;2024-01-25T11:42:54;12.40;99.90
27741;DHT22;15134;48.768;9.184;2024-01-25T11:45:20;12.40;99.90
27741;DHT22;15134;48.768;9.184;2024-01-25T11:47:46;12.50;99.90
27741;DHT22;15134;48.768;9.184;2024-01-25T11:50:13;12.60;99.90
27741;DHT22;15134;48.768;9.184;2024-01-25T11:52:39;12.60;99.90
27741;DHT22;15134;48.768;9.184;2024-01-25T11:55:09;12.60;99.90
27741;DHT22;15134;48.768;9.184;2024-01-25T11:57:37;12.60;99.90
27741;DHT22;15134;48.768;9.184;2024-01-25T12:00:12;12.70;99.90
27741;DHT22;15134;48.768;9.184;2024-01-25T12:02:39;12.70;99.90
27741;DHT22;15134;48.768;9.184;2024-01-25T12:05:06;12.80;99.90
27741;DHT22;15134;48.768;9.184;2024-01-25T12:07:32;12.80;99.90
27741;DHT22;15134;48.768;9.184;2024-01-25T12:10:03;12.80;99.90
27741;DHT22;15134;48.768;9.184;2024-01-25T12:12:30;12.90;99.90
27741;DHT22;15134;48.768;9.184;2024-01-25T12:15:00;13.00;99.90
27741;DHT22;15134;48.768;9.184;2024-01-25T12:17:29;13.00;99.90
27741;DHT22;15134;48.768;9.184;2024-01-25T12:19:58;13.10;99.90
27741;DHT22;15134;48.768;9.184;2024-01-25T12:22:27;13.10;99.90
27741;DHT22;15134;48.768;9.184;2024-01-25T12:24:53;13.30;99.90
27741;DHT22;15134;48.768;9.184;2024-01-25T12:27:24;13.40;99.90
27741;DHT22;15134;48.768;9.184;2024-01-25T12:29:53;13.50;99.90
27741;DHT22;15134;48.768;9.184;2024-01-25T12:32:20;13.50;99.90
27741;DHT22;15134;48.768;9.184;2024-01-25T12:34:59;13.50;99.90
27741;DHT22;15134;48.768;9.184;2024-01-25T12:37:29;13.40;99.90
27741;DHT22;15134;48.768;9.184;2024-01-25T12:39:55;13.40;99.90
27741;DHT22;15134;48.768;9.184;2024-01-25T12:42:21;13.30;99.90
27741;DHT22;15134;48.768;9.184;2024-01-25T12:44:48;13.30;99.90
27741;DHT22;15134;48.768;9.184;2024-01-25T12:47:14;13.20;99.90
27741;DHT22;15134;48.768;9.184;2024-01-25T12:49:41;13.20;99.90
27741;DHT22;15134;48.768;9.184;2024-01-25T12:52:08;13.20;99.90
27741;DHT22;15134;48.768;9.184;2024-01-25T12:54:34;13.20;99.90
27741;DHT22;15134;48.768;9.184;2024-01-25T12:57:00;13.20;99.90
27741;DHT22;15134;48.768;9.184;2024-01-25T12:59:26;13.10;99.90
27741;DHT22;15134;48.768;9.184;2024-01-25T13:01:51;13.00;99.90
27741;DHT22;15134;48.768;9.184;2024-01-25T13:04:17;12.90;99.90
27741;DHT22;15134;48.768;9.184;2024-01-25T13:06:43;12.80;99.90
27741;DHT22;15134;48.768;9.184;2024-01-25T13:09:08;12.60;99.90
27741;DHT22;15134;48.768;9.184;2024-01-25T13:11:34;12.50;99.90
27741;DHT22;15134;48.768;9.184;2024-01-25T13:14:00;12.50;99.90
27741;DHT22;15134;48.768;9.184;2024-01-25T13:16:26;12.50;99.90
27741;DHT22;15134;48.768;9.184;2024-01-25T13:18:52;12.50;99.90
27741;DHT22;15134;48.768;9.184;2024-01-25T13:21:17;12.60;99.90
27741;DHT22;15134;48.768;9.184;2024-01-25T13:23:43;12.60;99.90
27741;DHT22;15134;48.768;9.184;2024-01-25T13:26:09;12.50;99.90
27741;DHT22;15134;48.768;9.184;2024-01-25T13:28:34;12.50;99.90
27741;DHT22;15134;48.768;9.184;2024-01-25T13:31:00;12.50;99.90
27741;DHT22;15134;48.768;9.184;2024-01-25T13:33:26;12.60;99.90
27741;DHT22;15134;48.768;9.184;2024-01-25T13:35:52;12.60;99.90
27741;DHT22;15134;48.768;9.184;2024-01-25T13:38:17;12.70;99.90
27741;DHT22;15134;48.768;9.184;2024-01-25T13:40:43;12.70;99.90
27741;DHT22;15134;48.768;9.184;2024-01-25T13:43:09;12.70;99.90
27741;DHT22;15134;48.768;9.184;2024-01-25T13:45:34;12.70;99.90
27741;DHT22;15134;48.768;9.184;2024-01-25T13:48:00;12.70;99.90
27741;DHT22;15134;48.768;9.184;2024-01-25T13:50:26;12.70;99.90
27741;DHT22;15134;48.768;9.184;2024-01-25T13:52:51;12.70;99.90
27741;DHT22;15134;48.768;9.184;2024-01-25T13:55:17;12.60;99.90
27741;DHT22;15134;48.768;9.184;2024-01-25T13:57:43;12.60;99.90
27741;DHT22;15134;48.768;9.184;2024-01-25T14:00:09;12.50;99.90
27741;DHT22;15134;48.768;9.184;2024-01-25T14:02:36;12.50;99.90
27741;DHT22;15134;48.768;9.184;2024-01-25T14:05:02;12.40;99.90
27741;DHT22;15134;48.768;9.184;2024-01-25T14:07:27;12.30;99.90
27741;DHT22;15134;48.768;9.184;2024-01-25T14:09:53;12.20;99.90
27741;DHT22;15134;48.768;9.184;2024-01-25T14:12:19;12.10;99.90
27741;DHT22;15134;48.768;9.184;2024-01-25T14:14:45;12.10;99.90
27741;DHT22;15134;48.768;9.184;2024-01-25T14:17:11;12.10;99.90
27741;DHT22;15134;48.768;9.184;2024-01-25T14:19:36;12.10;99.90
27741;DHT22;15134;48.768;9.184;2024-01-25T14:22:02;12.20;99.90
27741;DHT22;15134;48.768;9.184;2024-01-25T14:24:28;12.10;99.90
27741;DHT22;15134;48.768;9.184;2024-01-25T14:26:54;12.00;99.90
27741;DHT22;15134;48.768;9.184;2024-01-25T14:29:19;11.90;99.90
27741;DHT22;15134;48.768;9.184;2024-01-25T14:31:45;11.90;99.90
27741;DHT22;15134;48.768;9.184;2024-01-25T14:34:11;11.80;99.90
27741;DHT22;15134;48.768;9.184;2024-01-25T14:36:37;11.70;99.90
27741;DHT22;15134;48.768;9.184;2024-01-25T14:39:03;11.70;99.90
27741;DHT22;15134;48.768;9.184;2024-01-25T14:41:32;11.70;99.90
27741;DHT22;15134;48.768;9.184;2024-01-25T14:43:59;11.70;99.90
27741;DHT22;15134;48.768;9.184;2024-01-25T14:46:26;11.60;99.90
27741;DHT22;15134;48.768;9.184;2024-01-25T14:48:51;11.50;99.90
27741;DHT22;15134;48.768;9.184;2024-01-25T14:51:17;11.50;99.90
27741;DHT22;15134;48.768;9.184;2024-01-25T14:53:43;11.40;99.90
27741;DHT22;15134;48.768;9.184;2024-01-25T14:56:09;11.50;99.90
27741;DHT22;15134;48.768;9.184;2024-01-25T14:58:35;11.50;99.90
27741;DHT22;15134;48.768;9.184;2024-01-25T15:01:00;11.60;99.90
27741;DHT22;15134;48.768;9.184;2024-01-25T15:03:26;11.60;99.90
27741;DHT22;15134;48.768;9.184;2024-01-25T15:05:52;11.60;99.90
27741;DHT22;15134;48.768;9.184;2024-01-25T15:08:17;11.60;99.90
27741;DHT22;15134;48.768;9.184;2024-01-25T15:10:43;11.60;99.90
27741;DHT22;15134;48.768;9.184;2024-01-25T15:13:09;11.60;99.90
27741;DHT22;15134;48.768;9.184;2024-01-25T15:15:35;11.60;99.90
27741;DHT22;15134;48.768;9.184;2024-01-25T15:18:00;11.50;99.90
27741;DHT22;15134;48.768;9.184;2024-01-25T15:20:27;11.50;99.90
27741;DHT22;15134;48.768;9.184;2024-01-25T15:22:54;11.50;99.90
27741;DHT22;15134;48.768;9.184;2024-01-25T15:25:23;11.50;99.90
27741;DHT22;15134;48.768;9.184;2024-01-25T15:27:50;11.50;99.90
27741;DHT22;15134;48.768;9.184;2024-01-25T15:30:16;11.60;99.90
27741;DHT22;15134;48.768;9.184;2024-01-25T15:32:42;11.60;99.90